Time;durP1;ratioP1;P1;durP2;ratioP2;P2;SDS_P1;SDS_P2;PMS_P1;PMS_P2;Temp;Humidity;BMP_temperature;BMP_pressure;BME280_temperature;BME280_humidity;BME280_pressure;Samples;Min_cycle;Max_cycle;Signal;HPM_P1;HPM_P2
2020/12/16 00:00:09;;;;;;;;;63.75;51.75;;;;;;;;5046614;28;8856;-72
2020/12/16 00:02:36;;;;;;;;;70.25;55.00;;;;;;;;5052079;28;8826;-75
2020/12/16 00:05:05;;;;;;;;;62.25;51.00;;;;;;;;5046619;28;8974;-73
2020/12/16 00:07:31;;;;;;;;;68.50;55.50;;;;;;;;5044119;28;8864;-72
2020/12/16 00:09:57;;;;;;;;;67.50;54.50;;;;;;;;5042283;28;9581;-72
2020/12/16 00:12:23;;;;;;;;;65.00;54.50;;;;;;;;5042706;28;8836;-72
2020/12/16 00:14:49;;;;;;;;;69.50;55.25;;;;;;;;5042889;28;9601;-72
2020/12/16 00:17:15;;;;;;;;;71.25;56.50;;;;;;;;5041356;28;8862;-72
2020/12/16 00:19:42;;;;;;;;;65.25;52.00;;;;;;;;5043653;28;8964;-73
2020/12/16 00:22:08;;;;;;;;;67.00;55.00;;;;;;;;5036445;28;8851;-72
2020/12/16 00:24:33;;;;;;;;;67.25;53.25;;;;;;;;5043248;28;8844;-72
2020/12/16 00:26:59;;;;;;;;;68.25;54.75;;;;;;;;5041065;28;8841;-72
2020/12/16 00:29:26;;;;;;;;;68.50;54.25;;;;;;;;5042480;28;8856;-73
2020/12/16 00:31:51;;;;;;;;;66.75;54.25;;;;;;;;5041838;28;8952;-73
2020/12/16 00:34:18;;;;;;;;;62.75;50.00;;;;;;;;5040990;28;8994;-73
2020/12/16 00:36:45;;;;;;;;;65.50;51.25;;;;;;;;5042807;28;8999;-73
2020/12/16 00:39:11;;;;;;;;;63.25;51.00;;;;;;;;5040356;28;8950;-73
2020/12/16 00:41:37;;;;;;;;;67.25;53.25;;;;;;;;5035785;28;8962;-73
2020/12/16 00:44:06;;;;;;;;;60.25;51.00;;;;;;;;5043419;28;8868;-73
2020/12/16 00:46:32;;;;;;;;;66.50;52.00;;;;;;;;5040474;28;8863;-73
2020/12/16 00:48:58;;;;;;;;;58.25;49.50;;;;;;;;5042337;28;8831;-73
2020/12/16 00:51:24;;;;;;;;;59.00;49.50;;;;;;;;5041546;28;8880;-73
2020/12/16 00:53:51;;;;;;;;;56.75;45.00;;;;;;;;5040904;28;8930;-73
2020/12/16 00:56:17;;;;;;;;;61.25;49.75;;;;;;;;5042335;28;9023;-72
2020/12/16 00:58:43;;;;;;;;;58.25;49.00;;;;;;;;5038779;28;8839;-71
2020/12/16 01:01:09;;;;;;;;;61.00;49.00;;;;;;;;5043162;28;8960;-73
2020/12/16 01:03:35;;;;;;;;;58.00;45.75;;;;;;;;5039563;28;8866;-73
2020/12/16 01:06:00;;;;;;;;;56.25;47.75;;;;;;;;5042450;28;8986;-72
2020/12/16 01:08:26;;;;;;;;;59.00;48.25;;;;;;;;5040839;28;8841;-72
2020/12/16 01:10:53;;;;;;;;;61.75;50.00;;;;;;;;5041037;28;8870;-73
2020/12/16 01:13:19;;;;;;;;;62.25;50.75;;;;;;;;5041813;28;8853;-72
2020/12/16 01:15:45;;;;;;;;;64.00;53.00;;;;;;;;5039818;28;8832;-73
2020/12/16 01:18:11;;;;;;;;;69.50;55.00;;;;;;;;5042671;28;8857;-73
2020/12/16 01:20:37;;;;;;;;;37.25;34.25;;;;;;;;5039382;28;8879;-72
2020/12/16 01:23:03;;;;;;;;;75.00;57.50;;;;;;;;5042421;28;8869;-72
2020/12/16 01:25:29;;;;;;;;;69.25;55.00;;;;;;;;5040160;28;9026;-72
2020/12/16 01:27:57;;;;;;;;;71.25;56.50;;;;;;;;5041053;28;8979;-72
2020/12/16 01:30:24;;;;;;;;;70.50;56.00;;;;;;;;5040848;28;8825;-72
2020/12/16 01:32:50;;;;;;;;;71.25;56.75;;;;;;;;5040183;28;9114;-71
2020/12/16 01:35:16;;;;;;;;;68.25;54.50;;;;;;;;5041537;28;8968;-71
2020/12/16 01:37:42;;;;;;;;;72.00;56.50;;;;;;;;5039121;28;8863;-72
2020/12/16 01:40:09;;;;;;;;;70.00;55.00;;;;;;;;5042753;28;8926;-72
2020/12/16 01:42:35;;;;;;;;;62.25;50.75;;;;;;;;5038967;28;8854;-72
2020/12/16 01:45:04;;;;;;;;;58.50;49.25;;;;;;;;5041578;28;8972;-73
2020/12/16 01:47:30;;;;;;;;;59.00;50.00;;;;;;;;5040072;28;9094;-71
2020/12/16 01:49:55;;;;;;;;;61.50;49.25;;;;;;;;5040603;28;8951;-72
2020/12/16 01:52:24;;;;;;;;;57.25;48.00;;;;;;;;5040777;28;9550;-72
2020/12/16 01:54:50;;;;;;;;;58.25;46.25;;;;;;;;5040007;28;8840;-72
2020/12/16 01:57:18;;;;;;;;;58.00;49.00;;;;;;;;5041324;28;8877;-73
2020/12/16 01:59:46;;;;;;;;;57.00;46.50;;;;;;;;5039001;28;8954;-72
2020/12/16 02:02:14;;;;;;;;;55.75;47.25;;;;;;;;5041883;28;8964;-72
2020/12/16 02:04:42;;;;;;;;;59.25;49.50;;;;;;;;5038617;28;9577;-72
2020/12/16 02:07:09;;;;;;;;;62.25;50.50;;;;;;;;5041884;28;8880;-72
2020/12/16 02:09:38;;;;;;;;;59.75;48.00;;;;;;;;5038557;28;8967;-71
2020/12/16 02:12:08;;;;;;;;;63.75;50.50;;;;;;;;5041671;28;8849;-72
2020/12/16 02:14:37;;;;;;;;;62.25;51.00;;;;;;;;5038461;28;8836;-72
2020/12/16 02:17:03;;;;;;;;;59.00;49.00;;;;;;;;5041468;28;8857;-72
2020/12/16 02:19:33;;;;;;;;;59.00;47.00;;;;;;;;5039171;28;8849;-73
2020/12/16 02:21:59;;;;;;;;;59.00;49.00;;;;;;;;5041232;28;8955;-73
2020/12/16 02:24:25;;;;;;;;;51.50;46.00;;;;;;;;5039871;28;9615;-73
2020/12/16 02:26:52;;;;;;;;;58.00;47.75;;;;;;;;5039492;28;8855;-73
2020/12/16 02:29:19;;;;;;;;;59.75;49.75;;;;;;;;5040749;28;8991;-72
2020/12/16 02:31:45;;;;;;;;;56.50;46.25;;;;;;;;5038426;28;8882;-74
2020/12/16 02:34:11;;;;;;;;;59.25;46.25;;;;;;;;5041458;28;8971;-73
2020/12/16 02:36:37;;;;;;;;;62.00;48.75;;;;;;;;5037966;28;8848;-73
2020/12/16 02:39:03;;;;;;;;;57.25;43.00;;;;;;;;5041349;28;9016;-72
2020/12/16 02:41:30;;;;;;;;;58.25;46.25;;;;;;;;5039001;28;8876;-72
2020/12/16 02:43:57;;;;;;;;;65.50;51.25;;;;;;;;5041030;28;8828;-73
2020/12/16 02:46:23;;;;;;;;;57.75;48.00;;;;;;;;5041005;28;8965;-73
2020/12/16 02:48:49;;;;;;;;;60.50;50.00;;;;;;;;5040615;28;8836;-74
2020/12/16 02:51:15;;;;;;;;;57.00;49.00;;;;;;;;5040752;28;8853;-72
2020/12/16 02:53:41;;;;;;;;;63.25;49.75;;;;;;;;5037978;28;8854;-72
2020/12/16 02:56:07;;;;;;;;;65.00;52.25;;;;;;;;5041543;28;8873;-72
2020/12/16 02:58:33;;;;;;;;;60.00;49.00;;;;;;;;5038234;28;8832;-72
2020/12/16 03:01:00;;;;;;;;;67.00;53.00;;;;;;;;5040656;28;8852;-73
2020/12/16 03:03:25;;;;;;;;;61.75;49.00;;;;;;;;5039390;28;8849;-73
2020/12/16 03:05:51;;;;;;;;;58.25;46.25;;;;;;;;5039723;28;9834;-72
2020/12/16 03:08:19;;;;;;;;;65.25;51.75;;;;;;;;5040256;28;8987;-72
2020/12/16 03:10:45;;;;;;;;;61.50;51.25;;;;;;;;5038823;28;8840;-72
2020/12/16 03:13:11;;;;;;;;;67.00;53.75;;;;;;;;5041018;28;8942;-72
2020/12/16 03:15:37;;;;;;;;;65.50;54.75;;;;;;;;5037867;28;8836;-72
2020/12/16 03:18:04;;;;;;;;;72.75;58.00;;;;;;;;5041187;28;8857;-72
2020/12/16 03:20:30;;;;;;;;;72.00;59.00;;;;;;;;5038334;28;8991;-72
2020/12/16 03:22:56;;;;;;;;;78.50;62.25;;;;;;;;5041678;28;8855;-72
2020/12/16 03:25:22;;;;;;;;;77.25;60.25;;;;;;;;5043438;28;8846;-72
2020/12/16 03:27:48;;;;;;;;;82.25;63.50;;;;;;;;5042565;28;8978;-72
2020/12/16 03:30:13;;;;;;;;;71.75;58.00;;;;;;;;5044357;28;8836;-72
2020/12/16 03:32:39;;;;;;;;;78.75;61.25;;;;;;;;5041446;28;8874;-72
2020/12/16 03:35:06;;;;;;;;;75.50;59.50;;;;;;;;5044621;28;8935;-72
2020/12/16 03:37:32;;;;;;;;;77.75;59.00;;;;;;;;5041480;28;8854;-72
2020/12/16 03:39:58;;;;;;;;;66.50;52.50;;;;;;;;5043895;28;8860;-73
2020/12/16 03:42:24;;;;;;;;;66.50;53.25;;;;;;;;5042900;28;8853;-73
2020/12/16 03:44:50;;;;;;;;;63.25;51.00;;;;;;;;5042509;28;8856;-73
2020/12/16 03:47:16;;;;;;;;;63.25;50.50;;;;;;;;5043701;28;8958;-72
2020/12/16 03:49:42;;;;;;;;;58.25;45.50;;;;;;;;5041066;28;8975;-73
2020/12/16 03:52:09;;;;;;;;;58.25;49.75;;;;;;;;5044633;28;8872;-72
2020/12/16 03:54:34;;;;;;;;;58.75;47.25;;;;;;;;5037229;28;8954;-72
2020/12/16 03:57:00;;;;;;;;;61.25;48.25;;;;;;;;5043913;28;9553;-72
2020/12/16 03:59:26;;;;;;;;;61.00;47.00;;;;;;;;5041915;28;9625;-72
2020/12/16 04:01:52;;;;;;;;;57.50;48.75;;;;;;;;5042568;28;8872;-72
2020/12/16 04:04:18;;;;;;;;;52.75;45.00;;;;;;;;5042779;28;8956;-72
2020/12/16 04:06:44;;;;;;;;;62.25;49.50;;;;;;;;5041466;28;8860;-71
2020/12/16 04:09:12;;;;;;;;;59.25;48.25;;;;;;;;5044124;28;8930;-71
2020/12/16 04:11:38;;;;;;;;;63.75;50.25;;;;;;;;5040132;28;8870;-71
2020/12/16 04:14:04;;;;;;;;;63.75;52.00;;;;;;;;5044019;28;9126;-72
2020/12/16 04:16:30;;;;;;;;;55.50;45.00;;;;;;;;5040907;28;8848;-71
2020/12/16 04:18:55;;;;;;;;;64.75;50.25;;;;;;;;5042570;28;8958;-73
2020/12/16 04:21:21;;;;;;;;;61.25;51.25;;;;;;;;5044218;28;8840;-73
2020/12/16 04:23:48;;;;;;;;;61.00;51.25;;;;;;;;5042580;28;8864;-72
2020/12/16 04:26:14;;;;;;;;;55.25;45.75;;;;;;;;5040873;28;8970;-72
2020/12/16 04:28:41;;;;;;;;;55.75;46.25;;;;;;;;5043419;28;8829;-73
2020/12/16 04:31:09;;;;;;;;;59.00;49.50;;;;;;;;5040493;28;9620;-73
2020/12/16 04:33:35;;;;;;;;;65.00;50.25;;;;;;;;5035818;28;9041;-73
2020/12/16 04:36:01;;;;;;;;;61.75;50.25;;;;;;;;5043234;28;8869;-73
2020/12/16 04:38:28;;;;;;;;;58.25;49.00;;;;;;;;5041061;28;8964;-73
2020/12/16 04:40:55;;;;;;;;;64.50;50.50;;;;;;;;5041946;28;8962;-73
2020/12/16 04:43:22;;;;;;;;;66.50;55.50;;;;;;;;5042248;28;8869;-73
2020/12/16 04:45:49;;;;;;;;;70.00;55.25;;;;;;;;5041028;28;8962;-73
2020/12/16 04:48:15;;;;;;;;;71.00;54.75;;;;;;;;5042562;28;8841;-73
2020/12/16 04:50:42;;;;;;;;;67.50;55.75;;;;;;;;5040200;28;8836;-73
2020/12/16 04:53:09;;;;;;;;;68.75;56.25;;;;;;;;5043297;28;8964;-72
2020/12/16 04:55:35;;;;;;;;;70.25;57.00;;;;;;;;5035924;28;8906;-72
2020/12/16 04:58:03;;;;;;;;;64.25;50.25;;;;;;;;5042830;28;8841;-72
2020/12/16 05:00:31;;;;;;;;;64.75;52.25;;;;;;;;5040443;28;8838;-72
2020/12/16 05:02:58;;;;;;;;;69.75;56.50;;;;;;;;5042439;28;8987;-71
2020/12/16 05:05:24;;;;;;;;;64.75;53.25;;;;;;;;5041080;28;8865;-69
2020/12/16 05:07:50;;;;;;;;;68.25;55.50;;;;;;;;5041211;28;8946;-70
2020/12/16 05:10:17;;;;;;;;;68.50;55.00;;;;;;;;5042288;28;8910;-70
2020/12/16 05:12:43;;;;;;;;;67.00;55.50;;;;;;;;5039736;28;8950;-70
2020/12/16 05:15:30;;;;;;;;;66.75;54.75;;;;;;;;5042738;28;8964;-70
2020/12/16 05:18:09;;;;;;;;;63.75;51.25;;;;;;;;5036521;28;8970;-70
2020/12/16 05:20:36;;;;;;;;;67.75;52.25;;;;;;;;5042855;28;8853;-69
2020/12/16 05:23:03;;;;;;;;;64.00;52.50;;;;;;;;5039695;28;8960;-70
2020/12/16 05:25:29;;;;;;;;;56.50;46.25;;;;;;;;5042158;28;8876;-69
2020/12/16 05:27:55;;;;;;;;;64.00;53.25;;;;;;;;5040275;28;8845;-69
2020/12/16 05:30:21;;;;;;;;;61.50;49.50;;;;;;;;5041028;28;8836;-69
2020/12/16 05:32:47;;;;;;;;;64.00;52.00;;;;;;;;5041245;28;9692;-70
2020/12/16 05:35:21;;;;;;;;;61.25;50.50;;;;;;;;5039519;28;8974;-69
2020/12/16 05:37:47;;;;;;;;;61.00;50.25;;;;;;;;5040771;28;8849;-68
2020/12/16 05:40:14;;;;;;;;;61.50;49.75;;;;;;;;5039679;28;8939;-69
2020/12/16 05:42:41;;;;;;;;;60.75;48.75;;;;;;;;5041746;28;8849;-69
2020/12/16 05:45:09;;;;;;;;;61.25;50.00;;;;;;;;5038836;28;8982;-69
2020/12/16 05:47:35;;;;;;;;;58.75;48.75;;;;;;;;5034627;28;8958;-69
2020/12/16 05:50:01;;;;;;;;;62.75;50.75;;;;;;;;5041914;28;8960;-69
2020/12/16 05:52:27;;;;;;;;;61.00;49.50;;;;;;;;5040416;28;8988;-69
2020/12/16 05:54:53;;;;;;;;;58.75;47.75;;;;;;;;5042754;28;8978;-69
2020/12/16 05:57:21;;;;;;;;;56.50;45.50;;;;;;;;5048170;28;8834;-69
2020/12/16 06:00:06;;;;;;;;;58.25;43.50;;;;;;;;5045066;28;8879;-71
2020/12/16 06:02:33;;;;;;;;;28.50;22.50;;;;;;;;5041644;28;8840;-70
2020/12/16 06:04:59;;;;;;;;;57.25;46.50;;;;;;;;5042021;28;8833;-70
2020/12/16 06:07:26;;;;;;;;;60.00;46.00;;;;;;;;5039960;28;8863;-70
2020/12/16 06:09:53;;;;;;;;;57.50;46.25;;;;;;;;5042027;28;9078;-70
2020/12/16 06:12:19;;;;;;;;;56.50;47.50;;;;;;;;5042241;28;8963;-72
2020/12/16 06:14:48;;;;;;;;;62.00;48.00;;;;;;;;5034768;28;8852;-73
2020/12/16 06:17:15;;;;;;;;;61.00;47.50;;;;;;;;5038712;28;8998;-76
2020/12/16 06:19:43;;;;;;;;;46.50;40.25;;;;;;;;5038385;28;9050;-73
2020/12/16 06:22:10;;;;;;;;;57.75;47.00;;;;;;;;5042199;28;8875;-75
2020/12/16 06:24:41;;;;;;;;;54.75;44.25;;;;;;;;5037026;28;8856;-73
2020/12/16 06:27:09;;;;;;;;;62.00;52.25;;;;;;;;5035598;28;8867;-73
2020/12/16 06:29:38;;;;;;;;;67.00;54.25;;;;;;;;5034737;28;8848;-72
2020/12/16 06:32:05;;;;;;;;;71.25;58.00;;;;;;;;5034927;28;8854;-72
2020/12/16 06:34:34;;;;;;;;;67.00;55.50;;;;;;;;5041735;28;8936;-72
2020/12/16 06:37:00;;;;;;;;;74.25;56.75;;;;;;;;5038436;28;9010;-74
2020/12/16 06:39:26;;;;;;;;;69.50;54.50;;;;;;;;5038200;28;8851;-71
2020/12/16 06:41:53;;;;;;;;;75.00;60.00;;;;;;;;5035328;28;8860;-72
2020/12/16 06:44:20;;;;;;;;;70.00;57.50;;;;;;;;5037047;28;9595;-71
2020/12/16 06:46:47;;;;;;;;;67.00;55.50;;;;;;;;5040819;28;9597;-71
2020/12/16 06:49:31;;;;;;;;;67.25;56.75;;;;;;;;5038877;28;8859;-72
2020/12/16 06:51:57;;;;;;;;;71.25;54.75;;;;;;;;5039146;28;8876;-72
2020/12/16 06:54:24;;;;;;;;;71.00;55.75;;;;;;;;5040440;28;8989;-74
2020/12/16 06:56:51;;;;;;;;;70.50;57.00;;;;;;;;5039934;28;8826;-73
2020/12/16 06:59:31;;;;;;;;;71.75;56.00;;;;;;;;5043476;28;9042;-73
2020/12/16 07:02:09;;;;;;;;;72.75;58.25;;;;;;;;5040483;28;8891;-74
2020/12/16 07:04:35;;;;;;;;;76.75;60.25;;;;;;;;4994352;28;10436;-72
2020/12/16 07:07:01;;;;;;;;;77.25;59.75;;;;;;;;5037695;28;9723;-72
2020/12/16 07:09:31;;;;;;;;;74.50;60.25;;;;;;;;5042578;28;8966;-71
2020/12/16 07:11:57;;;;;;;;;77.25;62.00;;;;;;;;5040604;28;8865;-75
2020/12/16 07:14:25;;;;;;;;;73.50;60.00;;;;;;;;5042227;28;8838;-67
2020/12/16 07:16:51;;;;;;;;;74.00;59.50;;;;;;;;5042055;28;8953;-67
2020/12/16 07:19:26;;;;;;;;;79.00;63.50;;;;;;;;5042020;28;8837;-70
2020/12/16 07:21:52;;;;;;;;;74.50;60.00;;;;;;;;5041753;28;8864;-69
2020/12/16 07:24:18;;;;;;;;;76.00;59.50;;;;;;;;5041337;28;8849;-68
2020/12/16 07:26:46;;;;;;;;;71.50;57.50;;;;;;;;5040386;28;8840;-67
2020/12/16 07:29:34;;;;;;;;;77.75;59.50;;;;;;;;5042668;28;8845;-68
2020/12/16 07:32:01;;;;;;;;;70.75;59.00;;;;;;;;5039739;28;8833;-68
2020/12/16 07:34:29;;;;;;;;;78.50;61.75;;;;;;;;5042029;28;8860;-69
2020/12/16 07:36:56;;;;;;;;;73.00;59.75;;;;;;;;5043981;28;8844;-66
2020/12/16 07:39:22;;;;;;;;;71.25;57.25;;;;;;;;5043306;28;8865;-68
2020/12/16 07:41:48;;;;;;;;;69.50;56.00;;;;;;;;5043068;28;8947;-68
2020/12/16 07:44:14;;;;;;;;;76.50;59.25;;;;;;;;5043852;28;8849;-67
2020/12/16 07:46:40;;;;;;;;;78.00;63.25;;;;;;;;5038348;28;8864;-68
2020/12/16 07:49:09;;;;;;;;;78.00;59.50;;;;;;;;5033553;28;8943;-69
2020/12/16 07:51:36;;;;;;;;;77.50;61.00;;;;;;;;5037828;28;8860;-70
2020/12/16 07:54:02;;;;;;;;;73.75;59.25;;;;;;;;5035748;28;9031;-72
2020/12/16 07:56:28;;;;;;;;;63.50;49.75;;;;;;;;5037187;28;9684;-84
2020/12/16 07:58:54;;;;;;;;;72.75;58.25;;;;;;;;5042752;28;8857;-73
2020/12/16 08:01:20;;;;;;;;;70.75;57.50;;;;;;;;5041126;28;8853;-73
2020/12/16 08:03:46;;;;;;;;;76.00;60.50;;;;;;;;5038637;28;8848;-74
2020/12/16 08:06:12;;;;;;;;;77.25;60.00;;;;;;;;5041903;28;8877;-73
2020/12/16 08:08:43;;;;;;;;;77.75;62.75;;;;;;;;5038034;28;8860;-74
2020/12/16 08:11:15;;;;;;;;;78.50;61.00;;;;;;;;5042272;28;8987;-73
2020/12/16 08:13:41;;;;;;;;;78.75;61.75;;;;;;;;5038960;28;8871;-73
2020/12/16 08:16:07;;;;;;;;;73.50;58.25;;;;;;;;5038696;28;9616;-74
2020/12/16 08:18:33;;;;;;;;;78.50;59.75;;;;;;;;5040805;28;8900;-77
2020/12/16 08:20:59;;;;;;;;;72.25;56.00;;;;;;;;5038042;28;8849;-76
2020/12/16 08:23:25;;;;;;;;;69.50;56.00;;;;;;;;5039725;28;8873;-74
2020/12/16 08:25:52;;;;;;;;;59.50;48.00;;;;;;;;5038105;28;8964;-75
2020/12/16 08:28:24;;;;;;;;;63.25;52.75;;;;;;;;5040159;28;8937;-80
2020/12/16 08:30:51;;;;;;;;;71.75;55.75;;;;;;;;5040902;28;8976;-74
2020/12/16 08:33:18;;;;;;;;;67.75;55.50;;;;;;;;5038706;28;8926;-74
2020/12/16 08:35:49;;;;;;;;;73.25;55.50;;;;;;;;5041507;28;8860;-74
2020/12/16 08:38:19;;;;;;;;;68.25;54.25;;;;;;;;4999762;28;10540;-74
2020/12/16 08:40:46;;;;;;;;;70.50;57.25;;;;;;;;5044394;28;8839;-75
2020/12/16 08:43:16;;;;;;;;;72.00;55.50;;;;;;;;5004940;28;11490;-74
2020/12/16 08:45:43;;;;;;;;;82.00;64.75;;;;;;;;4988540;28;54370;-75
2020/12/16 08:48:09;;;;;;;;;70.00;56.00;;;;;;;;5019072;28;8854;-74
2020/12/16 08:50:35;;;;;;;;;64.25;54.50;;;;;;;;5017629;28;10087;-74
2020/12/16 08:53:01;;;;;;;;;68.50;56.25;;;;;;;;5016240;28;8856;-72
2020/12/16 08:55:27;;;;;;;;;72.00;57.00;;;;;;;;5019284;28;8876;-74
2020/12/16 08:57:54;;;;;;;;;65.75;54.25;;;;;;;;5018382;28;8839;-74
2020/12/16 09:00:26;;;;;;;;;70.25;58.25;;;;;;;;5018220;28;8958;-78
2020/12/16 09:03:02;;;;;;;;;70.00;56.25;;;;;;;;5017035;28;8873;-75
2020/12/16 09:05:29;;;;;;;;;78.25;59.75;;;;;;;;5021002;28;8982;-74
2020/12/16 09:08:03;;;;;;;;;76.75;60.25;;;;;;;;4983572;28;10959;-75
2020/12/16 09:10:29;;;;;;;;;70.75;57.25;;;;;;;;5022918;28;8844;-76
2020/12/16 09:12:55;;;;;;;;;78.00;61.75;;;;;;;;5019841;28;8866;-77
2020/12/16 09:15:21;;;;;;;;;78.50;61.25;;;;;;;;5020197;28;8852;-77
2020/12/16 09:17:51;;;;;;;;;72.25;57.00;;;;;;;;5020273;28;8839;-74
2020/12/16 09:20:17;;;;;;;;;73.25;59.00;;;;;;;;5016246;28;8969;-76
2020/12/16 09:22:43;;;;;;;;;62.00;52.50;;;;;;;;5019849;28;8870;-76
2020/12/16 09:25:15;;;;;;;;;74.50;59.50;;;;;;;;5021585;28;8862;-73
2020/12/16 09:27:49;;;;;;;;;73.50;59.25;;;;;;;;5019475;28;8985;-75
2020/12/16 09:30:23;;;;;;;;;77.00;61.50;;;;;;;;5021550;28;9750;-73
2020/12/16 09:32:50;;;;;;;;;76.50;61.75;;;;;;;;4992995;28;10311;-72
2020/12/16 09:35:16;;;;;;;;;74.25;60.75;;;;;;;;4991893;28;11174;-72
2020/12/16 09:37:42;;;;;;;;;74.50;59.25;;;;;;;;5021398;28;8859;-72
2020/12/16 09:40:08;;;;;;;;;73.00;58.50;;;;;;;;5017952;28;8879;-72
2020/12/16 09:42:35;;;;;;;;;76.75;60.75;;;;;;;;5017563;28;8989;-72
2020/12/16 09:45:08;;;;;;;;;69.25;56.25;;;;;;;;5020042;28;8902;-72
2020/12/16 09:47:41;;;;;;;;;75.00;60.50;;;;;;;;5016016;28;8877;-72
2020/12/16 09:50:09;;;;;;;;;76.50;61.75;;;;;;;;5012495;28;8854;-73
2020/12/16 09:52:35;;;;;;;;;78.75;62.50;;;;;;;;4985818;28;11969;-63
2020/12/16 09:55:12;;;;;;;;;81.00;63.25;;;;;;;;5013388;28;8941;-65
2020/12/16 09:57:38;;;;;;;;;78.50;60.50;;;;;;;;5016736;28;8854;-67
2020/12/16 10:00:04;;;;;;;;;75.75;59.00;;;;;;;;5020221;28;8879;-68
2020/12/16 10:02:30;;;;;;;;;77.00;62.00;;;;;;;;5019569;28;9734;-66
2020/12/16 10:04:56;;;;;;;;;51.00;40.25;;;;;;;;5018407;28;8989;-67
2020/12/16 10:07:23;;;;;;;;;82.50;63.25;;;;;;;;5016674;28;8901;-67
2020/12/16 10:09:55;;;;;;;;;76.50;62.25;;;;;;;;5017458;28;9621;-65
2020/12/16 10:12:21;;;;;;;;;75.50;59.50;;;;;;;;5017704;28;8866;-66
2020/12/16 10:14:47;;;;;;;;;77.50;61.00;;;;;;;;5017492;28;8994;-68
2020/12/16 10:17:13;;;;;;;;;76.25;61.25;;;;;;;;5016564;28;9379;-67
2020/12/16 10:19:39;;;;;;;;;70.25;55.75;;;;;;;;5018383;28;8864;-69
2020/12/16 10:22:05;;;;;;;;;77.50;61.75;;;;;;;;5017209;28;8981;-66
2020/12/16 10:24:32;;;;;;;;;74.25;58.25;;;;;;;;5020820;28;8843;-66
2020/12/16 10:27:01;;;;;;;;;76.00;59.75;;;;;;;;5017784;28;8902;-68
2020/12/16 10:29:27;;;;;;;;;76.00;59.00;;;;;;;;5019908;28;8840;-67
2020/12/16 10:31:53;;;;;;;;;67.25;52.50;;;;;;;;5018390;28;8871;-74
2020/12/16 10:34:20;;;;;;;;;73.25;59.00;;;;;;;;5019630;28;8961;-74
2020/12/16 10:36:48;;;;;;;;;73.75;57.00;;;;;;;;5019447;28;8852;-74
2020/12/16 10:39:14;;;;;;;;;77.00;60.25;;;;;;;;5019207;28;8851;-74
2020/12/16 10:41:43;;;;;;;;;71.75;58.25;;;;;;;;5020478;28;8844;-74
2020/12/16 10:44:08;;;;;;;;;69.50;57.00;;;;;;;;5017822;28;8855;-73
2020/12/16 10:46:34;;;;;;;;;75.50;58.50;;;;;;;;5015716;28;8839;-73
2020/12/16 10:49:00;;;;;;;;;75.50;60.25;;;;;;;;5016990;28;8861;-72
2020/12/16 10:51:27;;;;;;;;;75.25;59.25;;;;;;;;5020301;28;8843;-73
2020/12/16 10:53:53;;;;;;;;;79.75;62.00;;;;;;;;5019252;28;8831;-72
2020/12/16 10:56:19;;;;;;;;;73.50;58.50;;;;;;;;5016429;28;8860;-73
2020/12/16 10:58:46;;;;;;;;;75.50;61.00;;;;;;;;5014849;28;8869;-72
2020/12/16 11:01:12;;;;;;;;;81.25;63.00;;;;;;;;5012695;28;8913;-72
2020/12/16 11:03:38;;;;;;;;;76.00;59.50;;;;;;;;5021569;28;8984;-74
2020/12/16 11:06:05;;;;;;;;;80.00;62.25;;;;;;;;5024716;28;8978;-73
2020/12/16 11:08:31;;;;;;;;;77.50;63.00;;;;;;;;5017732;28;8969;-71
2020/12/16 11:10:57;;;;;;;;;77.75;63.00;;;;;;;;5018225;28;8839;-73
2020/12/16 11:13:23;;;;;;;;;80.75;62.25;;;;;;;;5020192;28;8895;-78
2020/12/16 11:15:50;;;;;;;;;77.00;61.00;;;;;;;;5019315;28;8958;-73
2020/12/16 11:18:15;;;;;;;;;76.75;60.50;;;;;;;;5019399;28;8851;-73
2020/12/16 11:20:41;;;;;;;;;75.00;59.50;;;;;;;;5020238;28;9707;-72
2020/12/16 11:23:07;;;;;;;;;77.00;60.50;;;;;;;;5019314;28;9001;-73
2020/12/16 11:25:33;;;;;;;;;78.75;62.50;;;;;;;;5020387;28;8878;-74
2020/12/16 11:27:59;;;;;;;;;78.00;61.00;;;;;;;;5019700;28;8869;-74
2020/12/16 11:30:25;;;;;;;;;79.00;63.75;;;;;;;;5020843;28;8852;-72
2020/12/16 11:32:52;;;;;;;;;79.25;62.25;;;;;;;;5018314;28;9623;-73
2020/12/16 11:35:18;;;;;;;;;74.75;60.25;;;;;;;;5019743;28;8965;-72
2020/12/16 11:37:44;;;;;;;;;78.00;62.50;;;;;;;;5019173;28;8960;-72
2020/12/16 11:40:10;;;;;;;;;78.00;60.50;;;;;;;;5018808;28;8858;-72
2020/12/16 11:42:36;;;;;;;;;77.00;60.50;;;;;;;;4955313;28;263200;-70
2020/12/16 11:45:03;;;;;;;;;87.25;64.75;;;;;;;;5020885;28;8873;-73
2020/12/16 11:47:28;;;;;;;;;76.00;60.25;;;;;;;;5023991;28;8921;-73
2020/12/16 11:49:55;;;;;;;;;82.50;66.50;;;;;;;;5019604;28;8967;-72
2020/12/16 11:52:21;;;;;;;;;83.75;67.25;;;;;;;;5023743;28;8871;-73
2020/12/16 11:54:47;;;;;;;;;85.25;68.25;;;;;;;;5022884;28;9006;-70
2020/12/16 11:57:13;;;;;;;;;87.50;71.25;;;;;;;;5023335;28;8846;-69
2020/12/16 11:59:40;;;;;;;;;86.00;70.50;;;;;;;;5027987;28;8989;-70
2020/12/16 12:02:06;;;;;;;;;85.25;71.00;;;;;;;;5024611;28;8863;-70
2020/12/16 12:04:32;;;;;;;;;82.50;65.25;;;;;;;;5025192;28;9737;-71
2020/12/16 12:06:59;;;;;;;;;86.25;69.00;;;;;;;;5024696;28;8836;-69
2020/12/16 12:09:25;;;;;;;;;83.75;68.75;;;;;;;;5024996;28;8856;-71
2020/12/16 12:11:51;;;;;;;;;83.25;66.00;;;;;;;;5022288;28;8905;-71
2020/12/16 12:14:17;;;;;;;;;83.25;65.00;;;;;;;;5023208;28;8985;-71
2020/12/16 12:16:44;;;;;;;;;87.25;72.00;;;;;;;;5017836;28;8970;-70
2020/12/16 12:19:10;;;;;;;;;82.50;66.25;;;;;;;;5021706;28;8851;-70
2020/12/16 12:21:35;;;;;;;;;85.00;71.75;;;;;;;;5018439;28;9047;-69
2020/12/16 12:24:02;;;;;;;;;80.75;68.50;;;;;;;;5016535;28;8859;-70
2020/12/16 12:26:28;;;;;;;;;88.00;74.25;;;;;;;;5016043;28;8981;-69
2020/12/16 12:28:54;;;;;;;;;27.50;20.50;;;;;;;;5015825;28;8867;-69
2020/12/16 12:31:20;;;;;;;;;87.25;71.50;;;;;;;;5019446;28;9602;-71
2020/12/16 12:33:46;;;;;;;;;91.75;79.25;;;;;;;;5020108;28;9297;-70
2020/12/16 12:36:12;;;;;;;;;92.25;81.25;;;;;;;;5019548;28;8843;-70
2020/12/16 12:38:38;;;;;;;;;93.25;81.75;;;;;;;;5017455;28;9660;-69
2020/12/16 12:41:04;;;;;;;;;92.75;85.75;;;;;;;;5019676;28;8971;-69
2020/12/16 12:43:30;;;;;;;;;98.00;87.50;;;;;;;;5020337;28;8964;-69
2020/12/16 12:45:56;;;;;;;;;98.25;90.25;;;;;;;;5014275;28;8836;-72
2020/12/16 12:48:22;;;;;;;;;95.00;81.50;;;;;;;;5017944;28;8936;-71
2020/12/16 12:50:48;;;;;;;;;94.50;87.25;;;;;;;;5042519;23;9735;-76
2020/12/16 12:53:14;;;;;;;;;101.75;92.75;;;;;;;;5030343;28;8861;-74
2020/12/16 12:55:40;;;;;;;;;96.00;81.25;;;;;;;;5031920;28;8860;-76
2020/12/16 12:58:07;;;;;;;;;94.25;89.75;;;;;;;;5031103;28;8828;-76
2020/12/16 13:00:33;;;;;;;;;97.75;88.00;;;;;;;;5030167;28;9141;-76
2020/12/16 13:02:59;;;;;;;;;107.50;94.50;;;;;;;;5030587;28;8840;-75
2020/12/16 13:05:25;;;;;;;;;98.00;89.00;;;;;;;;5035922;28;8915;-76
2020/12/16 13:07:51;;;;;;;;;98.50;88.00;;;;;;;;5030953;28;9568;-72
2020/12/16 13:10:17;;;;;;;;;95.00;88.75;;;;;;;;5031398;28;9026;-79
2020/12/16 13:12:43;;;;;;;;;100.00;92.00;;;;;;;;5032039;28;8845;-80
2020/12/16 13:15:10;;;;;;;;;99.25;91.50;;;;;;;;5003162;28;11210;-80
2020/12/16 13:17:36;;;;;;;;;94.00;87.00;;;;;;;;5042244;28;8828;-75
2020/12/16 13:20:02;;;;;;;;;97.50;88.50;;;;;;;;5043705;28;8852;-78
2020/12/16 13:22:28;;;;;;;;;101.75;95.00;;;;;;;;5034947;28;8941;-76
2020/12/16 13:24:56;;;;;;;;;104.50;96.00;;;;;;;;5042335;28;8843;-78
2020/12/16 13:27:22;;;;;;;;;108.25;93.50;;;;;;;;5039772;28;8828;-80
2020/12/16 13:29:58;;;;;;;;;102.25;91.75;;;;;;;;5030047;28;8964;-78
2020/12/16 13:32:26;;;;;;;;;100.75;93.75;;;;;;;;5040119;28;8864;-75
2020/12/16 13:34:52;;;;;;;;;105.75;92.50;;;;;;;;5037626;28;8838;-75
2020/12/16 13:37:18;;;;;;;;;96.50;87.75;;;;;;;;5039916;28;8900;-80
2020/12/16 13:39:45;;;;;;;;;62.00;43.25;;;;;;;;5038747;28;8842;-77
2020/12/16 13:42:12;;;;;;;;;93.50;87.00;;;;;;;;5038882;28;8850;-77
2020/12/16 13:44:39;;;;;;;;;99.75;93.50;;;;;;;;5039539;28;9040;-80
2020/12/16 13:47:05;;;;;;;;;95.00;88.25;;;;;;;;5038122;28;8952;-77
2020/12/16 13:49:31;;;;;;;;;92.50;80.00;;;;;;;;5036686;28;9672;-79
2020/12/16 13:51:57;;;;;;;;;95.25;85.50;;;;;;;;5040766;28;8954;-74
2020/12/16 13:54:23;;;;;;;;;93.00;80.25;;;;;;;;5035472;28;8859;-74
2020/12/16 13:56:49;;;;;;;;;94.25;86.25;;;;;;;;5037702;28;9635;-75
2020/12/16 13:59:15;;;;;;;;;93.00;81.25;;;;;;;;5038306;28;8956;-76
2020/12/16 14:01:41;;;;;;;;;101.75;90.25;;;;;;;;5038819;28;8855;-76
2020/12/16 14:04:07;;;;;;;;;96.75;84.25;;;;;;;;5002211;28;11290;-76
2020/12/16 14:06:34;;;;;;;;;102.00;93.00;;;;;;;;5019927;28;9858;-75
2020/12/16 14:09:00;;;;;;;;;108.25;99.25;;;;;;;;5017474;28;8848;-73
2020/12/16 14:11:26;;;;;;;;;101.00;92.50;;;;;;;;5020514;28;8846;-76
2020/12/16 14:13:55;;;;;;;;;99.25;91.25;;;;;;;;5017087;28;8832;-76
2020/12/16 14:16:27;;;;;;;;;98.00;95.00;;;;;;;;5020022;28;9642;-76
2020/12/16 14:18:53;;;;;;;;;102.50;93.00;;;;;;;;5017992;28;8856;-76
2020/12/16 14:21:19;;;;;;;;;98.25;92.50;;;;;;;;5019603;28;9580;-76
2020/12/16 14:23:46;;;;;;;;;94.25;88.00;;;;;;;;5018238;28;8989;-79
2020/12/16 14:26:12;;;;;;;;;89.00;76.25;;;;;;;;5019641;28;8953;-76